sensor_id;sensor_type;location;lat;lon;timestamp;temperature;humidity
37998;DHT22;24079;51.824;4.682;2023-11-22T00:02:06;6.60;99.90
37998;DHT22;24079;51.824;4.682;2023-11-22T00:04:31;6.60;99.90
37998;DHT22;24079;51.824;4.682;2023-11-22T00:06:57;6.60;99.90
37998;DHT22;24079;51.824;4.682;2023-11-22T00:09:22;6.60;99.90
37998;DHT22;24079;51.824;4.682;2023-11-22T00:11:49;6.50;99.90
37998;DHT22;24079;51.824;4.682;2023-11-22T00:14:15;6.50;99.90
37998;DHT22;24079;51.824;4.682;2023-11-22T00:16:41;6.40;99.90
37998;DHT22;24079;51.824;4.682;2023-11-22T00:19:06;6.30;99.90
37998;DHT22;24079;51.824;4.682;2023-11-22T00:21:32;6.30;99.90
37998;DHT22;24079;51.824;4.682;2023-11-22T00:23:58;6.30;99.90
37998;DHT22;24079;51.824;4.682;2023-11-22T00:26:24;6.30;99.90
37998;DHT22;24079;51.824;4.682;2023-11-22T00:28:50;6.30;99.90
37998;DHT22;24079;51.824;4.682;2023-11-22T00:31:16;6.30;99.90
37998;DHT22;24079;51.824;4.682;2023-11-22T00:33:41;6.30;99.90
37998;DHT22;24079;51.824;4.682;2023-11-22T00:36:07;6.30;99.90
37998;DHT22;24079;51.824;4.682;2023-11-22T00:38:34;6.30;99.90
37998;DHT22;24079;51.824;4.682;2023-11-22T00:41:04;6.30;99.90
37998;DHT22;24079;51.824;4.682;2023-11-22T00:43:30;6.20;99.90
37998;DHT22;24079;51.824;4.682;2023-11-22T00:45:56;6.20;99.90
37998;DHT22;24079;51.824;4.682;2023-11-22T00:48:22;6.30;99.90
37998;DHT22;24079;51.824;4.682;2023-11-22T00:50:48;6.20;99.90
37998;DHT22;24079;51.824;4.682;2023-11-22T00:53:14;6.20;99.90
37998;DHT22;24079;51.824;4.682;2023-11-22T00:55:40;6.20;99.90
37998;DHT22;24079;51.824;4.682;2023-11-22T00:58:07;6.20;99.90
37998;DHT22;24079;51.824;4.682;2023-11-22T01:00:33;6.20;99.90
37998;DHT22;24079;51.824;4.682;2023-11-22T01:02:58;6.20;99.90
37998;DHT22;24079;51.824;4.682;2023-11-22T01:05:24;6.20;99.90
37998;DHT22;24079;51.824;4.682;2023-11-22T01:07:50;6.20;99.90
37998;DHT22;24079;51.824;4.682;2023-11-22T01:10:15;6.20;99.90
37998;DHT22;24079;51.824;4.682;2023-11-22T01:12:41;6.20;99.90
37998;DHT22;24079;51.824;4.682;2023-11-22T01:15:07;6.20;99.90
37998;DHT22;24079;51.824;4.682;2023-11-22T01:17:34;6.20;99.90
37998;DHT22;24079;51.824;4.682;2023-11-22T01:20:01;6.20;99.90
37998;DHT22;24079;51.824;4.682;2023-11-22T01:22:27;6.20;99.90
37998;DHT22;24079;51.824;4.682;2023-11-22T01:24:53;6.20;99.90
37998;DHT22;24079;51.824;4.682;2023-11-22T01:27:19;6.20;99.90
37998;DHT22;24079;51.824;4.682;2023-11-22T01:29:44;6.30;99.90
37998;DHT22;24079;51.824;4.682;2023-11-22T01:32:10;6.20;99.90
37998;DHT22;24079;51.824;4.682;2023-11-22T01:34:36;6.20;99.90
37998;DHT22;24079;51.824;4.682;2023-11-22T01:37:02;6.20;99.90
37998;DHT22;24079;51.824;4.682;2023-11-22T01:39:28;6.20;99.90
37998;DHT22;24079;51.824;4.682;2023-11-22T01:41:54;6.20;99.90
37998;DHT22;24079;51.824;4.682;2023-11-22T01:44:20;6.20;99.90
37998;DHT22;24079;51.824;4.682;2023-11-22T01:46:45;6.30;99.90
37998;DHT22;24079;51.824;4.682;2023-11-22T01:49:12;6.20;99.90
37998;DHT22;24079;51.824;4.682;2023-11-22T01:51:39;6.20;99.90
37998;DHT22;24079;51.824;4.682;2023-11-22T01:54:07;6.20;99.90
37998;DHT22;24079;51.824;4.682;2023-11-22T01:56:35;6.20;99.90
37998;DHT22;24079;51.824;4.682;2023-11-22T01:59:05;6.20;99.90
37998;DHT22;24079;51.824;4.682;2023-11-22T02:01:31;6.10;99.90
37998;DHT22;24079;51.824;4.682;2023-11-22T02:03:57;6.10;99.90
37998;DHT22;24079;51.824;4.682;2023-11-22T02:06:23;6.00;99.90
37998;DHT22;24079;51.824;4.682;2023-11-22T02:08:50;6.00;99.90
37998;DHT22;24079;51.824;4.682;2023-11-22T02:11:19;6.10;99.90
37998;DHT22;24079;51.824;4.682;2023-11-22T02:13:50;6.00;99.90
37998;DHT22;24079;51.824;4.682;2023-11-22T02:16:19;6.00;99.90
37998;DHT22;24079;51.824;4.682;2023-11-22T02:18:46;6.00;99.90
37998;DHT22;24079;51.824;4.682;2023-11-22T02:21:13;6.00;99.90
37998;DHT22;24079;51.824;4.682;2023-11-22T02:23:40;5.90;99.90
37998;DHT22;24079;51.824;4.682;2023-11-22T02:26:07;5.90;99.90
37998;DHT22;24079;51.824;4.682;2023-11-22T02:28:33;5.80;99.90
37998;DHT22;24079;51.824;4.682;2023-11-22T02:30:59;5.90;99.90
37998;DHT22;24079;51.824;4.682;2023-11-22T02:33:24;5.80;99.90
37998;DHT22;24079;51.824;4.682;2023-11-22T02:35:50;5.90;99.90
37998;DHT22;24079;51.824;4.682;2023-11-22T02:38:16;5.80;99.90
37998;DHT22;24079;51.824;4.682;2023-11-22T02:40:43;5.80;99.90
37998;DHT22;24079;51.824;4.682;2023-11-22T02:43:09;5.80;99.90
37998;DHT22;24079;51.824;4.682;2023-11-22T02:45:36;5.80;99.90
37998;DHT22;24079;51.824;4.682;2023-11-22T02:48:04;5.70;99.90
37998;DHT22;24079;51.824;4.682;2023-11-22T02:50:30;5.70;99.90
37998;DHT22;24079;51.824;4.682;2023-11-22T02:52:59;5.70;99.90
37998;DHT22;24079;51.824;4.682;2023-11-22T02:55:25;5.80;99.90
37998;DHT22;24079;51.824;4.682;2023-11-22T02:57:51;5.70;99.90
37998;DHT22;24079;51.824;4.682;2023-11-22T03:00:17;5.60;99.90
37998;DHT22;24079;51.824;4.682;2023-11-22T03:02:45;5.60;99.90
37998;DHT22;24079;51.824;4.682;2023-11-22T03:05:12;5.60;99.90
37998;DHT22;24079;51.824;4.682;2023-11-22T03:07:38;5.60;99.90
37998;DHT22;24079;51.824;4.682;2023-11-22T03:10:04;5.60;99.90
37998;DHT22;24079;51.824;4.682;2023-11-22T03:12:30;5.50;99.90
37998;DHT22;24079;51.824;4.682;2023-11-22T03:14:56;5.50;99.90
37998;DHT22;24079;51.824;4.682;2023-11-22T03:17:26;5.50;99.90
37998;DHT22;24079;51.824;4.682;2023-11-22T03:19:53;5.50;99.90
37998;DHT22;24079;51.824;4.682;2023-11-22T03:22:21;5.50;99.90
37998;DHT22;24079;51.824;4.682;2023-11-22T03:24:46;5.40;99.90
37998;DHT22;24079;51.824;4.682;2023-11-22T03:27:13;5.40;99.90
37998;DHT22;24079;51.824;4.682;2023-11-22T03:29:38;5.50;99.90
37998;DHT22;24079;51.824;4.682;2023-11-22T03:32:04;5.40;99.90
37998;DHT22;24079;51.824;4.682;2023-11-22T03:34:30;5.40;99.90
37998;DHT22;24079;51.824;4.682;2023-11-22T03:36:55;5.40;99.90
37998;DHT22;24079;51.824;4.682;2023-11-22T03:39:21;5.40;99.90
37998;DHT22;24079;51.824;4.682;2023-11-22T03:41:48;5.40;99.90
37998;DHT22;24079;51.824;4.682;2023-11-22T03:44:13;5.40;99.90
37998;DHT22;24079;51.824;4.682;2023-11-22T03:46:39;5.40;99.90
37998;DHT22;24079;51.824;4.682;2023-11-22T03:49:06;5.40;99.90
37998;DHT22;24079;51.824;4.682;2023-11-22T03:51:36;5.40;99.90
37998;DHT22;24079;51.824;4.682;2023-11-22T03:54:02;5.40;99.90
37998;DHT22;24079;51.824;4.682;2023-11-22T03:56:29;5.50;99.90
37998;DHT22;24079;51.824;4.682;2023-11-22T03:58:55;5.50;99.90
37998;DHT22;24079;51.824;4.682;2023-11-22T04:01:21;5.50;99.90
37998;DHT22;24079;51.824;4.682;2023-11-22T04:03:47;5.60;99.90
37998;DHT22;24079;51.824;4.682;2023-11-22T04:06:16;5.70;99.90
37998;DHT22;24079;51.824;4.682;2023-11-22T04:08:46;5.70;99.90
37998;DHT22;24079;51.824;4.682;2023-11-22T04:11:15;5.80;99.90
37998;DHT22;24079;51.824;4.682;2023-11-22T04:13:42;5.80;99.90
37998;DHT22;24079;51.824;4.682;2023-11-22T04:16:08;5.90;99.90
37998;DHT22;24079;51.824;4.682;2023-11-22T04:18:37;5.80;99.90
37998;DHT22;24079;51.824;4.682;2023-11-22T04:21:03;5.80;99.90
37998;DHT22;24079;51.824;4.682;2023-11-22T04:23:30;5.90;99.90
37998;DHT22;24079;51.824;4.682;2023-11-22T04:25:56;5.90;99.90
37998;DHT22;24079;51.824;4.682;2023-11-22T04:28:24;5.80;99.90
37998;DHT22;24079;51.824;4.682;2023-11-22T04:30:49;5.80;99.90
37998;DHT22;24079;51.824;4.682;2023-11-22T04:33:15;5.80;99.90
37998;DHT22;24079;51.824;4.682;2023-11-22T04:35:40;5.80;99.90
37998;DHT22;24079;51.824;4.682;2023-11-22T04:38:07;5.80;99.90
37998;DHT22;24079;51.824;4.682;2023-11-22T04:40:32;5.80;99.90
37998;DHT22;24079;51.824;4.682;2023-11-22T04:42:59;5.80;99.90
37998;DHT22;24079;51.824;4.682;2023-11-22T04:45:24;5.80;99.90
37998;DHT22;24079;51.824;4.682;2023-11-22T04:47:50;5.80;99.90
37998;DHT22;24079;51.824;4.682;2023-11-22T04:50:16;5.80;99.90
37998;DHT22;24079;51.824;4.682;2023-11-22T04:52:41;5.80;99.90
37998;DHT22;24079;51.824;4.682;2023-11-22T04:55:07;5.90;99.90
37998;DHT22;24079;51.824;4.682;2023-11-22T04:57:33;5.90;99.90
37998;DHT22;24079;51.824;4.682;2023-11-22T04:59:59;5.90;99.90
37998;DHT22;24079;51.824;4.682;2023-11-22T05:02:26;5.90;99.90
37998;DHT22;24079;51.824;4.682;2023-11-22T05:04:52;5.90;99.90
37998;DHT22;24079;51.824;4.682;2023-11-22T05:07:18;5.90;99.90
37998;DHT22;24079;51.824;4.682;2023-11-22T05:09:47;5.90;99.90
37998;DHT22;24079;51.824;4.682;2023-11-22T05:12:13;5.90;99.90
37998;DHT22;24079;51.824;4.682;2023-11-22T05:14:40;5.90;99.90
37998;DHT22;24079;51.824;4.682;2023-11-22T05:17:06;5.90;99.90
37998;DHT22;24079;51.824;4.682;2023-11-22T05:19:31;5.90;99.90
37998;DHT22;24079;51.824;4.682;2023-11-22T05:21:57;5.90;99.90
37998;DHT22;24079;51.824;4.682;2023-11-22T05:24:23;5.90;99.90
37998;DHT22;24079;51.824;4.682;2023-11-22T05:26:49;6.00;99.90
37998;DHT22;24079;51.824;4.682;2023-11-22T05:29:14;5.90;99.90
37998;DHT22;24079;51.824;4.682;2023-11-22T05:31:40;5.90;99.90
37998;DHT22;24079;51.824;4.682;2023-11-22T05:34:06;5.90;99.90
37998;DHT22;24079;51.824;4.682;2023-11-22T05:36:31;6.00;99.90
37998;DHT22;24079;51.824;4.682;2023-11-22T05:38:57;6.00;99.90
37998;DHT22;24079;51.824;4.682;2023-11-22T05:41:26;6.00;99.90
37998;DHT22;24079;51.824;4.682;2023-11-22T05:43:52;6.00;99.90
37998;DHT22;24079;51.824;4.682;2023-11-22T05:46:19;6.00;99.90
37998;DHT22;24079;51.824;4.682;2023-11-22T05:48:48;6.10;99.90
37998;DHT22;24079;51.824;4.682;2023-11-22T05:51:15;6.10;99.90
37998;DHT22;24079;51.824;4.682;2023-11-22T05:53:41;6.10;99.90
37998;DHT22;24079;51.824;4.682;2023-11-22T05:56:07;6.10;99.90
37998;DHT22;24079;51.824;4.682;2023-11-22T05:58:34;6.10;99.90
37998;DHT22;24079;51.824;4.682;2023-11-22T06:01:06;6.10;99.90
37998;DHT22;24079;51.824;4.682;2023-11-22T06:03:34;6.10;99.90
37998;DHT22;24079;51.824;4.682;2023-11-22T06:06:00;6.10;99.90
37998;DHT22;24079;51.824;4.682;2023-11-22T06:08:27;6.10;99.90
37998;DHT22;24079;51.824;4.682;2023-11-22T06:10:53;6.10;99.90
37998;DHT22;24079;51.824;4.682;2023-11-22T06:13:19;6.10;99.90
37998;DHT22;24079;51.824;4.682;2023-11-22T06:15:45;6.10;99.90
37998;DHT22;24079;51.824;4.682;2023-11-22T06:18:11;6.10;99.90
37998;DHT22;24079;51.824;4.682;2023-11-22T06:20:40;6.10;99.90
37998;DHT22;24079;51.824;4.682;2023-11-22T06:23:05;6.00;99.90
37998;DHT22;24079;51.824;4.682;2023-11-22T06:25:31;6.10;99.90
37998;DHT22;24079;51.824;4.682;2023-11-22T06:27:58;6.10;99.90
37998;DHT22;24079;51.824;4.682;2023-11-22T06:30:24;6.10;99.90
37998;DHT22;24079;51.824;4.682;2023-11-22T06:32:51;6.10;99.90
37998;DHT22;24079;51.824;4.682;2023-11-22T06:35:17;6.10;99.90
37998;DHT22;24079;51.824;4.682;2023-11-22T06:37:43;6.10;99.90
37998;DHT22;24079;51.824;4.682;2023-11-22T06:40:11;6.10;99.90
37998;DHT22;24079;51.824;4.682;2023-11-22T06:42:41;6.10;99.90
37998;DHT22;24079;51.824;4.682;2023-11-22T06:45:07;6.20;99.90
37998;DHT22;24079;51.824;4.682;2023-11-22T06:47:42;6.10;99.90
37998;DHT22;24079;51.824;4.682;2023-11-22T06:50:09;6.10;99.90
37998;DHT22;24079;51.824;4.682;2023-11-22T06:52:38;6.20;99.90
37998;DHT22;24079;51.824;4.682;2023-11-22T06:55:06;6.20;99.90
37998;DHT22;24079;51.824;4.682;2023-11-22T06:57:35;6.20;99.90
37998;DHT22;24079;51.824;4.682;2023-11-22T07:00:02;6.10;99.90
37998;DHT22;24079;51.824;4.682;2023-11-22T07:02:31;6.20;99.90
37998;DHT22;24079;51.824;4.682;2023-11-22T07:04:56;6.10;99.90
37998;DHT22;24079;51.824;4.682;2023-11-22T07:07:24;6.10;99.90
37998;DHT22;24079;51.824;4.682;2023-11-22T07:09:50;6.10;99.90
37998;DHT22;24079;51.824;4.682;2023-11-22T07:12:16;6.20;99.90
37998;DHT22;24079;51.824;4.682;2023-11-22T07:14:42;6.20;99.90
37998;DHT22;24079;51.824;4.682;2023-11-22T07:17:09;6.20;99.90
37998;DHT22;24079;51.824;4.682;2023-11-22T07:19:34;6.20;99.90
37998;DHT22;24079;51.824;4.682;2023-11-22T07:22:04;6.10;99.90
37998;DHT22;24079;51.824;4.682;2023-11-22T07:24:30;6.30;99.90
37998;DHT22;24079;51.824;4.682;2023-11-22T07:26:59;6.30;99.90
37998;DHT22;24079;51.824;4.682;2023-11-22T07:29:26;6.30;99.90
37998;DHT22;24079;51.824;4.682;2023-11-22T07:31:54;6.20;99.90
37998;DHT22;24079;51.824;4.682;2023-11-22T07:34:21;6.20;99.90
37998;DHT22;24079;51.824;4.682;2023-11-22T07:36:47;6.20;99.90
37998;DHT22;24079;51.824;4.682;2023-11-22T07:39:13;6.20;99.90
37998;DHT22;24079;51.824;4.682;2023-11-22T07:41:38;6.20;99.90
37998;DHT22;24079;51.824;4.682;2023-11-22T07:44:04;6.10;99.90
37998;DHT22;24079;51.824;4.682;2023-11-22T07:46:30;6.20;99.90
37998;DHT22;24079;51.824;4.682;2023-11-22T07:48:56;6.20;99.90
37998;DHT22;24079;51.824;4.682;2023-11-22T07:51:23;6.10;99.90
37998;DHT22;24079;51.824;4.682;2023-11-22T07:53:50;6.20;99.90
37998;DHT22;24079;51.824;4.682;2023-11-22T07:56:16;6.20;99.90
37998;DHT22;24079;51.824;4.682;2023-11-22T07:58:42;6.20;99.90
37998;DHT22;24079;51.824;4.682;2023-11-22T08:01:08;6.20;99.90
37998;DHT22;24079;51.824;4.682;2023-11-22T08:03:40;6.20;99.90
37998;DHT22;24079;51.824;4.682;2023-11-22T08:06:11;6.20;99.90
37998;DHT22;24079;51.824;4.682;2023-11-22T08:08:38;6.20;99.90
37998;DHT22;24079;51.824;4.682;2023-11-22T08:11:06;6.20;99.90
37998;DHT22;24079;51.824;4.682;2023-11-22T08:13:41;6.20;99.90
37998;DHT22;24079;51.824;4.682;2023-11-22T08:16:09;6.10;99.90
37998;DHT22;24079;51.824;4.682;2023-11-22T08:18:38;6.20;99.90
37998;DHT22;24079;51.824;4.682;2023-11-22T08:21:05;6.20;99.90
37998;DHT22;24079;51.824;4.682;2023-11-22T08:23:31;6.20;99.90
37998;DHT22;24079;51.824;4.682;2023-11-22T08:26:01;6.30;99.90
37998;DHT22;24079;51.824;4.682;2023-11-22T08:28:27;6.30;99.90
37998;DHT22;24079;51.824;4.682;2023-11-22T08:30:54;6.30;99.90
37998;DHT22;24079;51.824;4.682;2023-11-22T08:33:21;6.30;99.90
37998;DHT22;24079;51.824;4.682;2023-11-22T08:35:48;6.40;99.90
37998;DHT22;24079;51.824;4.682;2023-11-22T08:38:18;6.50;99.90
37998;DHT22;24079;51.824;4.682;2023-11-22T08:40:45;6.50;99.90
37998;DHT22;24079;51.824;4.682;2023-11-22T08:43:11;6.50;99.90
37998;DHT22;24079;51.824;4.682;2023-11-22T08:45:37;6.60;99.90
37998;DHT22;24079;51.824;4.682;2023-11-22T08:48:03;6.60;99.90
37998;DHT22;24079;51.824;4.682;2023-11-22T08:50:29;6.70;99.90
37998;DHT22;24079;51.824;4.682;2023-11-22T08:52:55;6.70;99.90
37998;DHT22;24079;51.824;4.682;2023-11-22T08:55:23;6.80;99.90
37998;DHT22;24079;51.824;4.682;2023-11-22T08:57:50;6.80;99.90
37998;DHT22;24079;51.824;4.682;2023-11-22T09:00:17;6.90;99.90
37998;DHT22;24079;51.824;4.682;2023-11-22T09:02:49;6.90;99.90
37998;DHT22;24079;51.824;4.682;2023-11-22T09:05:15;7.00;99.90
37998;DHT22;24079;51.824;4.682;2023-11-22T09:07:43;7.00;99.90
37998;DHT22;24079;51.824;4.682;2023-11-22T09:10:10;7.00;99.90
37998;DHT22;24079;51.824;4.682;2023-11-22T09:12:39;7.00;99.90
37998;DHT22;24079;51.824;4.682;2023-11-22T09:15:07;7.10;99.90
37998;DHT22;24079;51.824;4.682;2023-11-22T09:17:38;7.10;99.90
37998;DHT22;24079;51.824;4.682;2023-11-22T09:20:12;7.10;99.90
37998;DHT22;24079;51.824;4.682;2023-11-22T09:22:51;7.10;99.90
37998;DHT22;24079;51.824;4.682;2023-11-22T09:25:22;7.10;99.90
37998;DHT22;24079;51.824;4.682;2023-11-22T09:27:51;7.10;99.90
37998;DHT22;24079;51.824;4.682;2023-11-22T09:30:21;7.20;99.90
37998;DHT22;24079;51.824;4.682;2023-11-22T09:33:12;7.30;99.90
37998;DHT22;24079;51.824;4.682;2023-11-22T09:35:42;7.30;99.90
37998;DHT22;24079;51.824;4.682;2023-11-22T09:38:09;7.40;99.90
37998;DHT22;24079;51.824;4.682;2023-11-22T09:40:47;7.40;99.90
37998;DHT22;24079;51.824;4.682;2023-11-22T09:43:14;7.40;99.90
37998;DHT22;24079;51.824;4.682;2023-11-22T09:45:49;7.40;99.90
37998;DHT22;24079;51.824;4.682;2023-11-22T09:48:17;7.50;99.90
37998;DHT22;24079;51.824;4.682;2023-11-22T09:50:50;7.50;99.90
37998;DHT22;24079;51.824;4.682;2023-11-22T09:55:58;7.60;99.90
37998;DHT22;24079;51.824;4.682;2023-11-22T09:58:24;7.60;99.90
37998;DHT22;24079;51.824;4.682;2023-11-22T10:00:50;7.70;99.90
37998;DHT22;24079;51.824;4.682;2023-11-22T10:03:18;7.70;99.90
37998;DHT22;24079;51.824;4.682;2023-11-22T10:05:45;7.80;99.90
37998;DHT22;24079;51.824;4.682;2023-11-22T10:08:11;7.80;99.90
37998;DHT22;24079;51.824;4.682;2023-11-22T10:10:37;7.80;99.90
37998;DHT22;24079;51.824;4.682;2023-11-22T10:13:03;7.80;99.90
37998;DHT22;24079;51.824;4.682;2023-11-22T10:15:29;7.80;99.90
37998;DHT22;24079;51.824;4.682;2023-11-22T10:17:57;7.80;99.90
37998;DHT22;24079;51.824;4.682;2023-11-22T10:20:36;7.90;99.90
37998;DHT22;24079;51.824;4.682;2023-11-22T10:23:02;7.90;99.90
37998;DHT22;24079;51.824;4.682;2023-11-22T10:25:28;8.10;99.90
37998;DHT22;24079;51.824;4.682;2023-11-22T10:27:54;8.20;99.90
37998;DHT22;24079;51.824;4.682;2023-11-22T10:30:20;8.20;99.90
37998;DHT22;24079;51.824;4.682;2023-11-22T10:32:46;8.30;99.90
37998;DHT22;24079;51.824;4.682;2023-11-22T10:35:12;8.40;99.90
37998;DHT22;24079;51.824;4.682;2023-11-22T10:37:42;8.40;99.90
37998;DHT22;24079;51.824;4.682;2023-11-22T10:40:12;8.50;99.90
37998;DHT22;24079;51.824;4.682;2023-11-22T10:42:40;8.50;99.90
37998;DHT22;24079;51.824;4.682;2023-11-22T10:45:08;8.50;99.90
37998;DHT22;24079;51.824;4.682;2023-11-22T10:47:38;8.50;99.90
37998;DHT22;24079;51.824;4.682;2023-11-22T10:50:05;8.50;99.90
37998;DHT22;24079;51.824;4.682;2023-11-22T10:52:35;8.50;99.90
37998;DHT22;24079;51.824;4.682;2023-11-22T10:55:03;8.40;99.90
37998;DHT22;24079;51.824;4.682;2023-11-22T10:57:56;8.40;99.90
37998;DHT22;24079;51.824;4.682;2023-11-22T11:00:21;8.40;99.90
37998;DHT22;24079;51.824;4.682;2023-11-22T11:02:53;8.50;99.90
37998;DHT22;24079;51.824;4.682;2023-11-22T11:05:27;8.50;99.90
37998;DHT22;24079;51.824;4.682;2023-11-22T11:08:04;8.50;99.90
37998;DHT22;24079;51.824;4.682;2023-11-22T11:10:41;8.60;99.90
37998;DHT22;24079;51.824;4.682;2023-11-22T11:13:08;8.70;99.90
37998;DHT22;24079;51.824;4.682;2023-11-22T11:15:41;8.80;99.90
37998;DHT22;24079;51.824;4.682;2023-11-22T11:18:13;9.00;99.90
37998;DHT22;24079;51.824;4.682;2023-11-22T11:23:39;9.20;99.90
37998;DHT22;24079;51.824;4.682;2023-11-22T11:26:19;9.20;99.90
37998;DHT22;24079;51.824;4.682;2023-11-22T11:28:50;9.10;99.90
37998;DHT22;24079;51.824;4.682;2023-11-22T11:31:18;9.10;99.90
37998;DHT22;24079;51.824;4.682;2023-11-22T11:36:27;9.00;99.90
37998;DHT22;24079;51.824;4.682;2023-11-22T11:38:54;8.90;99.90
37998;DHT22;24079;51.824;4.682;2023-11-22T11:41:26;8.70;99.90
37998;DHT22;24079;51.824;4.682;2023-11-22T11:43:52;8.60;99.90
37998;DHT22;24079;51.824;4.682;2023-11-22T11:46:18;8.60;99.90
37998;DHT22;24079;51.824;4.682;2023-11-22T11:48:51;8.60;99.90
37998;DHT22;24079;51.824;4.682;2023-11-22T11:51:22;8.60;99.90
37998;DHT22;24079;51.824;4.682;2023-11-22T11:53:48;8.60;99.90
37998;DHT22;24079;51.824;4.682;2023-11-22T11:56:15;8.60;99.90
37998;DHT22;24079;51.824;4.682;2023-11-22T11:58:46;8.70;99.90
37998;DHT22;24079;51.824;4.682;2023-11-22T12:01:13;8.60;99.90
37998;DHT22;24079;51.824;4.682;2023-11-22T12:03:39;8.60;99.90
37998;DHT22;24079;51.824;4.682;2023-11-22T12:06:07;8.60;99.90
37998;DHT22;24079;51.824;4.682;2023-11-22T12:08:33;8.70;99.90
37998;DHT22;24079;51.824;4.682;2023-11-22T12:11:03;8.70;99.90
37998;DHT22;24079;51.824;4.682;2023-11-22T12:13:37;8.80;99.90
37998;DHT22;24079;51.824;4.682;2023-11-22T12:16:15;8.70;99.90
37998;DHT22;24079;51.824;4.682;2023-11-22T12:18:44;8.80;99.90
37998;DHT22;24079;51.824;4.682;2023-11-22T12:21:11;8.70;99.90
37998;DHT22;24079;51.824;4.682;2023-11-22T12:23:41;8.70;99.90
37998;DHT22;24079;51.824;4.682;2023-11-22T12:26:20;8.80;99.90
37998;DHT22;24079;51.824;4.682;2023-11-22T12:28:47;8.80;99.90
37998;DHT22;24079;51.824;4.682;2023-11-22T12:31:15;8.80;99.90
37998;DHT22;24079;51.824;4.682;2023-11-22T12:33:42;8.80;99.90
37998;DHT22;24079;51.824;4.682;2023-11-22T12:36:09;8.80;99.90
37998;DHT22;24079;51.824;4.682;2023-11-22T12:38:36;8.80;99.90
37998;DHT22;24079;51.824;4.682;2023-11-22T12:41:02;8.80;99.90
37998;DHT22;24079;51.824;4.682;2023-11-22T12:43:29;8.70;99.90
37998;DHT22;24079;51.824;4.682;2023-11-22T12:46:04;8.60;99.90
37998;DHT22;24079;51.824;4.682;2023-11-22T12:48:32;8.60;99.90
37998;DHT22;24079;51.824;4.682;2023-11-22T12:50:58;8.60;99.90
37998;DHT22;24079;51.824;4.682;2023-11-22T12:53:25;8.60;99.90
37998;DHT22;24079;51.824;4.682;2023-11-22T12:55:54;8.60;99.90
37998;DHT22;24079;51.824;4.682;2023-11-22T12:58:29;8.70;99.90
37998;DHT22;24079;51.824;4.682;2023-11-22T13:00:55;8.70;99.90
37998;DHT22;24079;51.824;4.682;2023-11-22T13:03:26;8.60;99.90
37998;DHT22;24079;51.824;4.682;2023-11-22T13:05:51;8.50;99.90
37998;DHT22;24079;51.824;4.682;2023-11-22T13:08:18;8.50;99.90
37998;DHT22;24079;51.824;4.682;2023-11-22T13:10:45;8.40;99.90
37998;DHT22;24079;51.824;4.682;2023-11-22T13:13:13;8.30;99.90
37998;DHT22;24079;51.824;4.682;2023-11-22T13:15:39;8.20;99.90
37998;DHT22;24079;51.824;4.682;2023-11-22T13:18:06;8.20;99.90
37998;DHT22;24079;51.824;4.682;2023-11-22T13:20:34;8.20;99.90
37998;DHT22;24079;51.824;4.682;2023-11-22T13:23:01;8.20;99.90
37998;DHT22;24079;51.824;4.682;2023-11-22T13:25:28;8.30;99.90
37998;DHT22;24079;51.824;4.682;2023-11-22T13:27:54;8.30;99.90
37998;DHT22;24079;51.824;4.682;2023-11-22T13:30:22;8.30;99.90
37998;DHT22;24079;51.824;4.682;2023-11-22T13:32:49;8.40;99.90
37998;DHT22;24079;51.824;4.682;2023-11-22T13:35:16;8.40;99.90
37998;DHT22;24079;51.824;4.682;2023-11-22T13:37:44;8.40;99.90
37998;DHT22;24079;51.824;4.682;2023-11-22T13:40:17;8.30;99.90
37998;DHT22;24079;51.824;4.682;2023-11-22T13:42:49;8.30;99.90
37998;DHT22;24079;51.824;4.682;2023-11-22T13:45:18;8.20;99.90
37998;DHT22;24079;51.824;4.682;2023-11-22T13:47:46;8.20;99.90
37998;DHT22;24079;51.824;4.682;2023-11-22T13:50:17;8.20;99.90
37998;DHT22;24079;51.824;4.682;2023-11-22T13:52:48;8.10;99.90
37998;DHT22;24079;51.824;4.682;2023-11-22T13:55:14;8.00;99.90
37998;DHT22;24079;51.824;4.682;2023-11-22T13:57:41;8.00;99.90
37998;DHT22;24079;51.824;4.682;2023-11-22T14:00:08;8.00;99.90
37998;DHT22;24079;51.824;4.682;2023-11-22T14:02:35;7.90;99.90
37998;DHT22;24079;51.824;4.682;2023-11-22T14:05:02;7.90;99.90
37998;DHT22;24079;51.824;4.682;2023-11-22T14:07:28;7.80;99.90
37998;DHT22;24079;51.824;4.682;2023-11-22T14:09:54;7.80;99.90
37998;DHT22;24079;51.824;4.682;2023-11-22T14:12:20;7.80;99.90
37998;DHT22;24079;51.824;4.682;2023-11-22T14:14:46;7.70;99.90
37998;DHT22;24079;51.824;4.682;2023-11-22T14:17:12;7.70;99.90
37998;DHT22;24079;51.824;4.682;2023-11-22T14:19:39;7.60;99.90
37998;DHT22;24079;51.824;4.682;2023-11-22T14:22:05;7.70;99.90
37998;DHT22;24079;51.824;4.682;2023-11-22T14:24:31;7.60;99.90
37998;DHT22;24079;51.824;4.682;2023-11-22T14:27:02;7.60;99.90
37998;DHT22;24079;51.824;4.682;2023-11-22T14:29:28;7.60;99.90
37998;DHT22;24079;51.824;4.682;2023-11-22T14:31:54;7.50;99.90
37998;DHT22;24079;51.824;4.682;2023-11-22T14:34:19;7.50;99.90
37998;DHT22;24079;51.824;4.682;2023-11-22T14:36:45;7.50;99.90
37998;DHT22;24079;51.824;4.682;2023-11-22T14:39:11;7.50;99.90
37998;DHT22;24079;51.824;4.682;2023-11-22T14:41:38;7.50;99.90
37998;DHT22;24079;51.824;4.682;2023-11-22T14:44:04;7.50;99.90
37998;DHT22;24079;51.824;4.682;2023-11-22T14:46:30;7.50;99.90
37998;DHT22;24079;51.824;4.682;2023-11-22T14:48:56;7.50;99.90
37998;DHT22;24079;51.824;4.682;2023-11-22T14:51:21;7.40;99.90
37998;DHT22;24079;51.824;4.682;2023-11-22T14:53:47;7.40;99.90
37998;DHT22;24079;51.824;4.682;2023-11-22T14:56:13;7.30;99.90
37998;DHT22;24079;51.824;4.682;2023-11-22T14:58:40;7.30;99.90
37998;DHT22;24079;51.824;4.682;2023-11-22T15:01:06;7.30;99.90
37998;DHT22;24079;51.824;4.682;2023-11-22T15:03:34;7.30;99.90
37998;DHT22;24079;51.824;4.682;2023-11-22T15:06:01;7.30;99.90
37998;DHT22;24079;51.824;4.682;2023-11-22T15:08:27;7.30;99.90
37998;DHT22;24079;51.824;4.682;2023-11-22T15:10:56;7.30;99.90
37998;DHT22;24079;51.824;4.682;2023-11-22T15:13:22;7.30;99.90
37998;DHT22;24079;51.824;4.682;2023-11-22T15:15:50;7.30;99.90
37998;DHT22;24079;51.824;4.682;2023-11-22T15:18:16;7.20;99.90
37998;DHT22;24079;51.824;4.682;2023-11-22T15:20:42;7.30;99.90
37998;DHT22;24079;51.824;4.682;2023-11-22T15:23:08;7.20;99.90
37998;DHT22;24079;51.824;4.682;2023-11-22T15:25:34;7.30;99.90
37998;DHT22;24079;51.824;4.682;2023-11-22T15:28:00;7.20;99.90
37998;DHT22;24079;51.824;4.682;2023-11-22T15:30:26;7.20;99.90
37998;DHT22;24079;51.824;4.682;2023-11-22T15:32:52;7.30;99.90
37998;DHT22;24079;51.824;4.682;2023-11-22T15:35:19;7.30;99.90
37998;DHT22;24079;51.824;4.682;2023-11-22T15:37:45;7.30;99.90
37998;DHT22;24079;51.824;4.682;2023-11-22T15:40:12;7.20;99.90
37998;DHT22;24079;51.824;4.682;2023-11-22T15:42:38;7.20;99.90
37998;DHT22;24079;51.824;4.682;2023-11-22T15:45:06;7.20;99.90
37998;DHT22;24079;51.824;4.682;2023-11-22T15:47:33;7.20;99.90
37998;DHT22;24079;51.824;4.682;2023-11-22T15:49:58;7.40;99.90
37998;DHT22;24079;51.824;4.682;2023-11-22T15:52:24;7.40;99.90
37998;DHT22;24079;51.824;4.682;2023-11-22T15:54:54;7.50;99.90